Terminal Aerodrome Forecast
Issued by NWS

Current Version | Previous Version | Text Only | Print | Product List | Glossary On
Versions: 1 2 3 4 5 6 7 8 9 10 11 12 13 14 15 16 17
277
FTUS43 KAPX 291745 AAC
TAFPLN
TAF AMD
KPLN 291745Z 2918/3018 36010G16KT P6SM SKC
     FM300000 05008KT P6SM BKN200
     FM300700 08008KT P6SM VCSH OVC110
     FM301000 08009KT P6SM VCSH OVC045
     FM301200 08010G21KT P6SM OVC025
     FM301600 08012G23KT P6SM OVC008=

USA.gov is the U.S. government's official web portal to all federal, state and local government web resources and services.